createdAt,value
2022-12-26T00:02:08.804Z,43.66
2022-12-26T00:04:48.639Z,43.54
2022-12-26T00:07:19.703Z,43.53
2022-12-26T00:09:47.034Z,43.44
2022-12-26T00:12:14.251Z,43.42
2022-12-26T00:14:41.340Z,43.39
2022-12-26T00:17:09.802Z,43.42
2022-12-26T00:19:36.906Z,43.27
2022-12-26T00:22:04.923Z,43.32
2022-12-26T00:24:32.170Z,43.19
2022-12-26T00:26:59.262Z,43.29
2022-12-26T00:29:26.385Z,43.32
2022-12-26T00:31:53.690Z,43.31
2022-12-26T00:34:22.265Z,43.31
2022-12-26T00:36:49.367Z,43.40
2022-12-26T00:39:16.475Z,43.46
2022-12-26T00:41:43.607Z,43.44
2022-12-26T00:44:10.712Z,43.44
2022-12-26T00:46:37.822Z,43.48
2022-12-26T00:49:04.954Z,43.62
2022-12-26T00:51:33.369Z,43.56
2022-12-26T00:54:00.475Z,43.59
2022-12-26T00:56:27.585Z,43.57
2022-12-26T00:58:54.664Z,43.33
2022-12-26T01:01:23.606Z,43.42
2022-12-26T01:03:51.991Z,43.32
2022-12-26T01:06:19.131Z,43.28
2022-12-26T01:08:47.637Z,43.27
2022-12-26T01:11:16.601Z,43.02
2022-12-26T01:13:43.735Z,43.32
2022-12-26T01:16:11.086Z,43.21
2022-12-26T01:18:38.270Z,43.37
2022-12-26T01:21:07.998Z,43.40
2022-12-26T01:23:35.162Z,43.50
2022-12-26T01:26:18.384Z,43.54
2022-12-26T01:28:47.296Z,43.51
2022-12-26T01:31:14.716Z,43.62
2022-12-26T01:33:41.837Z,43.59
2022-12-26T01:36:09.218Z,43.53
2022-12-26T01:38:36.390Z,43.58
2022-12-26T01:41:04.998Z,43.73
2022-12-26T01:43:48.171Z,43.84
2022-12-26T01:46:17.549Z,43.41
2022-12-26T01:48:45.753Z,43.52
2022-12-26T01:51:15.047Z,43.61
2022-12-26T01:53:46.471Z,43.62
2022-12-26T01:56:19.305Z,43.55
2022-12-26T01:58:50.058Z,43.45
2022-12-26T02:01:19.793Z,43.39
2022-12-26T02:03:48.217Z,43.49
2022-12-26T02:06:16.124Z,43.58
2022-12-26T02:08:45.703Z,43.42
2022-12-26T02:11:17.947Z,43.50
2022-12-26T02:13:45.476Z,43.69
2022-12-26T02:16:15.162Z,43.72
2022-12-26T02:18:42.559Z,43.66
2022-12-26T02:21:35.775Z,43.69
2022-12-26T02:24:47.223Z,43.70
2022-12-26T02:27:25.618Z,43.69
2022-12-26T02:30:07.165Z,43.71
2022-12-26T02:33:02.976Z,43.83
2022-12-26T02:35:45.006Z,43.67
2022-12-26T02:38:24.241Z,43.67
2022-12-26T02:41:01.720Z,43.57
2022-12-26T02:43:39.760Z,43.49
2022-12-26T02:46:18.189Z,43.61
2022-12-26T02:48:55.545Z,43.62
2022-12-26T02:51:36.062Z,43.50
2022-12-26T02:54:14.448Z,43.40
2022-12-26T02:56:45.818Z,43.52
2022-12-26T02:59:18.050Z,43.50
2022-12-26T03:01:51.932Z,43.59
2022-12-26T03:04:23.057Z,43.72
2022-12-26T03:06:56.304Z,43.65
2022-12-26T03:09:27.714Z,43.76
2022-12-26T03:11:59.279Z,43.67
2022-12-26T03:14:28.793Z,43.77
2022-12-26T03:17:00.807Z,43.75
2022-12-26T03:19:33.135Z,43.82
2022-12-26T03:22:02.187Z,43.88
2022-12-26T03:24:29.783Z,43.94
2022-12-26T03:26:56.922Z,43.80
2022-12-26T03:29:24.380Z,43.67
2022-12-26T03:31:51.635Z,43.57
2022-12-26T03:34:18.990Z,43.63
2022-12-26T03:36:57.973Z,43.55
2022-12-26T03:39:34.399Z,43.14
2022-12-26T03:42:09.847Z,43.36
2022-12-26T03:44:53.512Z,43.45
2022-12-26T03:47:27.446Z,43.74
2022-12-26T03:50:00.352Z,43.59
2022-12-26T03:52:38.817Z,43.76
2022-12-26T03:55:15.178Z,43.76
2022-12-26T03:57:52.524Z,43.92
2022-12-26T04:00:20.252Z,44.10
2022-12-26T04:02:49.783Z,43.91
2022-12-26T04:05:18.973Z,43.84
2022-12-26T04:07:56.730Z,43.97
2022-12-26T04:10:31.018Z,43.95
2022-12-26T04:13:01.336Z,44.14
2022-12-26T04:15:37.603Z,43.99
2022-12-26T04:18:10.441Z,43.94
2022-12-26T04:20:43.553Z,43.80
2022-12-26T04:23:18.283Z,43.82
2022-12-26T04:25:51.967Z,43.72
2022-12-26T04:28:19.934Z,43.80
2022-12-26T04:30:54.614Z,43.62
2022-12-26T04:33:28.664Z,43.61
2022-12-26T04:36:02.599Z,43.79
2022-12-26T04:38:37.808Z,43.82
2022-12-26T04:41:06.989Z,43.69
2022-12-26T04:43:48.154Z,43.67
2022-12-26T04:46:20.534Z,43.75
2022-12-26T04:48:50.645Z,43.84
2022-12-26T04:51:17.757Z,43.97
2022-12-26T04:53:46.579Z,43.97
2022-12-26T04:56:13.724Z,44.07
2022-12-26T04:58:40.806Z,43.89
2022-12-26T05:01:08.005Z,44.01
2022-12-26T05:03:35.162Z,44.06
2022-12-26T05:06:02.286Z,44.03
2022-12-26T05:08:34.554Z,43.95
2022-12-26T05:11:03.003Z,44.07
2022-12-26T05:13:30.109Z,43.74
2022-12-26T05:15:57.315Z,43.92
2022-12-26T05:18:24.446Z,43.76
2022-12-26T05:20:51.666Z,43.56
2022-12-26T05:23:22.597Z,43.65
2022-12-26T05:25:49.675Z,43.74
2022-12-26T05:28:19.006Z,43.77
2022-12-26T05:30:46.199Z,43.83
2022-12-26T05:33:13.361Z,43.92
2022-12-26T05:35:40.771Z,43.78
2022-12-26T05:38:10.032Z,43.83
2022-12-26T05:40:37.155Z,43.81
2022-12-26T05:43:04.276Z,43.70
2022-12-26T05:45:32.728Z,43.92
2022-12-26T05:48:00.258Z,43.89
2022-12-26T05:50:27.871Z,44.31
2022-12-26T05:52:56.815Z,44.47
2022-12-26T05:55:24.217Z,44.33
2022-12-26T05:57:51.641Z,44.20
2022-12-26T06:00:19.671Z,44.20
2022-12-26T06:02:48.674Z,44.13
2022-12-26T06:05:16.088Z,44.15
2022-12-26T06:07:43.210Z,44.13
2022-12-26T06:10:10.661Z,44.05
2022-12-26T06:12:37.792Z,44.14
2022-12-26T06:15:05.991Z,44.18
2022-12-26T06:17:33.101Z,44.10
2022-12-26T06:20:01.663Z,43.94
2022-12-26T06:22:28.872Z,44.00
2022-12-26T06:24:56.099Z,43.95
2022-12-26T06:27:23.219Z,44.10
2022-12-26T06:29:50.359Z,44.02
2022-12-26T06:32:17.469Z,43.96
2022-12-26T06:34:44.583Z,44.03
2022-12-26T06:37:13.209Z,43.95
2022-12-26T06:39:40.337Z,44.07
2022-12-26T06:42:07.461Z,44.03
2022-12-26T06:44:34.599Z,44.02
2022-12-26T06:47:01.730Z,44.03
2022-12-26T06:49:32.689Z,43.85
2022-12-26T06:52:00.424Z,43.81
2022-12-26T06:54:28.936Z,44.04
2022-12-26T06:56:56.388Z,44.08
2022-12-26T07:01:50.405Z,44.18
2022-12-26T07:04:17.605Z,46.13
2022-12-26T07:06:44.726Z,47.22
2022-12-26T07:09:14.784Z,47.72
2022-12-26T07:11:45.739Z,45.13
2022-12-26T07:14:13.376Z,43.79
2022-12-26T07:16:42.389Z,42.73
2022-12-26T07:19:11.408Z,42.20
2022-12-26T07:21:41.012Z,42.44
2022-12-26T07:24:14.676Z,42.52
2022-12-26T07:26:43.538Z,42.59
2022-12-26T07:29:11.599Z,42.81
2022-12-26T07:31:39.285Z,43.03
2022-12-26T07:34:06.598Z,43.33
2022-12-26T07:36:34.137Z,42.76
2022-12-26T07:39:01.273Z,42.60
2022-12-26T07:41:29.338Z,42.79
2022-12-26T07:43:58.048Z,42.45
2022-12-26T07:46:25.229Z,42.87
2022-12-26T07:48:52.361Z,42.67
2022-12-26T07:51:19.464Z,42.73
2022-12-26T07:53:46.567Z,42.64
2022-12-26T07:56:13.667Z,42.71
2022-12-26T07:58:40.794Z,42.71
2022-12-26T08:01:09.617Z,42.79
2022-12-26T08:03:36.892Z,42.96
2022-12-26T08:06:04.255Z,43.07
2022-12-26T08:08:31.453Z,43.02
2022-12-26T08:10:59.648Z,42.96
2022-12-26T08:13:28.298Z,43.06
2022-12-26T08:15:55.775Z,43.29
2022-12-26T08:18:24.999Z,43.27
2022-12-26T08:20:52.486Z,43.19
2022-12-26T08:23:19.807Z,43.40
2022-12-26T08:25:47.007Z,43.25
2022-12-26T08:28:14.123Z,43.09
2022-12-26T08:30:41.981Z,43.19
2022-12-26T08:33:10.314Z,43.14
2022-12-26T08:35:39.221Z,42.97
2022-12-26T08:38:06.652Z,42.97
2022-12-26T08:40:42.970Z,43.34
2022-12-26T08:45:58.995Z,52.91
2022-12-26T08:48:26.521Z,45.95
2022-12-26T08:50:59.218Z,44.85
2022-12-26T08:53:26.747Z,45.72
2022-12-26T08:55:53.834Z,45.12
2022-12-26T08:58:21.482Z,46.79
2022-12-26T09:00:54.935Z,46.46
2022-12-26T09:03:22.721Z,45.50
2022-12-26T09:05:49.902Z,45.34
2022-12-26T09:08:18.399Z,45.27
2022-12-26T09:10:45.501Z,45.01
2022-12-26T09:13:12.610Z,44.97
2022-12-26T09:15:39.709Z,44.75
2022-12-26T09:18:06.789Z,44.43
2022-12-26T09:20:33.956Z,44.21
2022-12-26T09:23:01.062Z,44.46
2022-12-26T09:25:29.582Z,44.06
2022-12-26T09:27:59.531Z,44.06
2022-12-26T09:30:26.854Z,43.95
2022-12-26T09:32:54.040Z,43.88
2022-12-26T09:35:21.219Z,44.38
2022-12-26T09:37:48.333Z,45.48
2022-12-26T09:40:23.859Z,44.15
2022-12-26T09:43:03.239Z,43.94
2022-12-26T09:45:44.972Z,43.80
2022-12-26T09:48:16.085Z,43.99
2022-12-26T09:50:43.600Z,43.70
2022-12-26T09:53:14.444Z,43.90
2022-12-26T09:55:46.488Z,44.13
2022-12-26T09:58:24.881Z,44.00
2022-12-26T10:00:56.806Z,43.97
2022-12-26T10:03:24.665Z,44.70
2022-12-26T10:06:05.680Z,44.75
2022-12-26T10:08:46.523Z,42.77
2022-12-26T10:11:20.252Z,42.50
2022-12-26T10:13:53.961Z,42.90
2022-12-26T10:16:39.045Z,43.62
2022-12-26T10:19:19.794Z,43.13
2022-12-26T10:21:54.190Z,43.10
2022-12-26T10:24:24.264Z,53.27
2022-12-26T10:26:56.628Z,54.73
2022-12-26T10:29:28.098Z,52.67
2022-12-26T10:31:59.421Z,53.08
2022-12-26T10:34:31.041Z,53.27
2022-12-26T10:37:01.140Z,51.28
2022-12-26T10:39:34.030Z,46.93
2022-12-26T10:42:09.258Z,46.70
2022-12-26T10:44:37.891Z,45.45
2022-12-26T10:47:25.081Z,45.51
2022-12-26T10:49:52.845Z,45.44
2022-12-26T10:52:25.977Z,44.88
2022-12-26T10:55:28.680Z,45.11
2022-12-26T10:57:46.067Z,45.13
2022-12-26T11:00:20.316Z,44.91
2022-12-26T11:03:02.700Z,44.76
2022-12-26T11:06:05.993Z,44.75
2022-12-26T11:08:21.588Z,44.97
2022-12-26T11:11:04.467Z,44.83
2022-12-26T11:13:38.461Z,44.93
2022-12-26T11:16:08.418Z,44.94
2022-12-26T11:18:39.661Z,44.78
2022-12-26T11:21:19.670Z,44.71
2022-12-26T11:23:48.350Z,44.89
2022-12-26T11:26:23.953Z,45.01
2022-12-26T11:29:07.180Z,44.85
2022-12-26T11:31:36.461Z,44.97
2022-12-26T11:34:08.801Z,44.70
2022-12-26T11:36:37.543Z,44.72
2022-12-26T11:39:08.442Z,44.64
2022-12-26T11:41:38.030Z,44.79
2022-12-26T11:44:16.215Z,44.65
2022-12-26T11:46:48.498Z,44.64
2022-12-26T11:49:26.848Z,44.62
2022-12-26T11:51:59.288Z,44.67
2022-12-26T11:54:30.381Z,44.56
2022-12-26T11:57:03.761Z,44.67
2022-12-26T11:59:30.959Z,44.75
2022-12-26T12:02:19.015Z,44.63
2022-12-26T12:04:47.976Z,44.84
2022-12-26T12:07:38.734Z,44.81
2022-12-26T12:10:30.975Z,44.60
2022-12-26T12:13:09.718Z,44.71
2022-12-26T12:15:42.472Z,44.93
2022-12-26T12:18:20.040Z,44.97
2022-12-26T12:21:02.896Z,44.94
2022-12-26T12:23:46.562Z,45.09
2022-12-26T12:26:18.094Z,44.61
2022-12-26T12:29:22.087Z,44.85
2022-12-26T12:32:08.702Z,44.71
2022-12-26T12:35:00.158Z,44.73
2022-12-26T12:37:43.747Z,44.81
2022-12-26T12:40:25.624Z,44.84
2022-12-26T12:43:03.310Z,44.87
2022-12-26T12:45:33.597Z,44.61
2022-12-26T12:48:36.127Z,45.71
2022-12-26T12:51:17.392Z,45.77
2022-12-26T12:54:09.322Z,45.90
2022-12-26T12:56:44.296Z,46.08
2022-12-26T12:59:24.582Z,45.52
2022-12-26T13:01:56.892Z,45.61
2022-12-26T13:04:29.299Z,45.78
2022-12-26T13:07:04.852Z,46.08
2022-12-26T13:09:38.025Z,45.97
2022-12-26T13:12:08.122Z,46.10
2022-12-26T13:14:39.632Z,45.75
2022-12-26T13:17:13.107Z,45.76
2022-12-26T13:19:51.414Z,45.64
2022-12-26T13:22:30.483Z,45.26
2022-12-26T13:25:00.667Z,45.29
2022-12-26T13:27:31.953Z,45.36
2022-12-26T13:29:59.070Z,45.31
2022-12-26T13:32:28.818Z,45.09
2022-12-26T13:34:59.004Z,44.95
2022-12-26T13:37:54.462Z,44.94
2022-12-26T13:40:25.402Z,45.24
2022-12-26T13:42:55.997Z,44.95
2022-12-26T13:45:52.304Z,44.85
2022-12-26T13:49:02.061Z,44.93
2022-12-26T13:51:58.909Z,44.76
2022-12-26T13:54:28.719Z,44.85
2022-12-26T13:57:28.368Z,44.63
2022-12-26T14:00:17.555Z,44.73
2022-12-26T14:03:21.240Z,44.85
2022-12-26T14:06:36.235Z,44.73
2022-12-26T14:09:19.211Z,44.89
2022-12-26T14:12:04.352Z,44.66
2022-12-26T14:14:46.229Z,44.58
2022-12-26T14:17:29.891Z,44.60
2022-12-26T14:20:05.595Z,44.57
2022-12-26T14:22:47.076Z,44.69
2022-12-26T14:25:22.570Z,44.69
2022-12-26T14:27:58.753Z,44.65
2022-12-26T14:30:32.347Z,45.13
2022-12-26T14:33:14.836Z,45.48
2022-12-26T14:35:54.268Z,46.04
2022-12-26T14:38:30.280Z,45.95
2022-12-26T14:41:01.312Z,45.64
2022-12-26T14:43:35.685Z,45.46
2022-12-26T14:46:29.260Z,45.82
2022-12-26T14:48:59.176Z,45.74
2022-12-26T14:51:40.236Z,45.94
2022-12-26T14:54:28.184Z,45.79
2022-12-26T14:56:55.883Z,45.59
2022-12-26T14:59:30.585Z,45.48
2022-12-26T15:02:08.601Z,45.31
2022-12-26T15:04:57.237Z,45.52
2022-12-26T15:08:08.860Z,45.14
2022-12-26T15:11:27.905Z,45.42
2022-12-26T15:14:28.195Z,45.10
2022-12-26T15:17:09.160Z,44.97
2022-12-26T15:20:20.570Z,45.44
2022-12-26T15:23:11.907Z,45.31
2022-12-26T15:26:04.693Z,45.27
2022-12-26T15:29:09.186Z,45.35
2022-12-26T15:31:42.809Z,45.24
2022-12-26T15:34:42.166Z,45.31
2022-12-26T15:37:21.331Z,45.29
2022-12-26T15:39:55.926Z,45.27
2022-12-26T15:42:34.716Z,45.23
2022-12-26T15:45:15.873Z,45.04
2022-12-26T15:47:52.757Z,45.17
2022-12-26T15:50:26.909Z,44.94
2022-12-26T15:53:00.374Z,45.04
2022-12-26T15:55:40.664Z,44.94
2022-12-26T15:58:22.377Z,44.95
2022-12-26T16:00:51.086Z,45.09
2022-12-26T16:03:29.101Z,45.00
2022-12-26T16:06:12.877Z,45.25
2022-12-26T16:09:03.822Z,45.22
2022-12-26T16:11:45.354Z,45.07
2022-12-26T16:14:24.234Z,44.89
2022-12-26T16:16:51.681Z,45.28
2022-12-26T16:19:20.765Z,45.32
2022-12-26T16:21:54.123Z,45.32
2022-12-26T16:24:21.509Z,45.62
2022-12-26T16:26:48.758Z,45.43
2022-12-26T16:29:18.685Z,45.31
2022-12-26T16:31:46.639Z,45.71
2022-12-26T16:34:17.183Z,45.43
2022-12-26T16:36:44.994Z,45.35
2022-12-26T16:39:21.473Z,45.25
2022-12-26T16:42:02.457Z,44.89
2022-12-26T16:44:34.495Z,45.19
2022-12-26T16:47:03.712Z,45.11
2022-12-26T16:49:31.668Z,44.73
2022-12-26T16:51:59.709Z,44.83
2022-12-26T16:54:35.840Z,44.84
2022-12-26T16:57:08.445Z,44.80
2022-12-26T16:59:50.103Z,44.72
2022-12-26T17:02:22.192Z,44.80
2022-12-26T17:04:58.272Z,44.92
2022-12-26T17:07:27.068Z,44.86
2022-12-26T17:09:58.252Z,44.95
2022-12-26T17:12:28.603Z,45.26
2022-12-26T17:14:58.799Z,45.27
2022-12-26T17:17:32.131Z,45.18
2022-12-26T17:20:43.240Z,45.21
2022-12-26T17:23:33.857Z,44.81
2022-12-26T17:28:54.322Z,44.79
2022-12-26T17:31:29.093Z,44.91
2022-12-26T17:33:57.396Z,44.59
2022-12-26T17:39:21.207Z,44.33
2022-12-26T17:41:51.697Z,44.45
2022-12-26T17:44:38.039Z,44.41
2022-12-26T17:47:15.461Z,44.33
2022-12-26T17:49:43.178Z,44.74
2022-12-26T17:52:11.870Z,44.50
2022-12-26T17:54:39.349Z,44.53
2022-12-26T17:57:06.465Z,44.53
2022-12-26T17:59:33.558Z,44.84
2022-12-26T18:02:02.092Z,44.98
2022-12-26T18:04:29.288Z,44.92
2022-12-26T18:06:56.387Z,44.65
2022-12-26T18:09:27.087Z,44.69
2022-12-26T18:11:55.183Z,44.62
2022-12-26T18:14:22.656Z,44.50
2022-12-26T18:16:51.177Z,44.08
2022-12-26T18:19:20.186Z,43.99
2022-12-26T18:21:47.459Z,43.99
2022-12-26T18:24:14.569Z,43.74
2022-12-26T18:26:41.794Z,43.62
2022-12-26T18:29:10.333Z,43.41
2022-12-26T18:31:37.870Z,43.71
2022-12-26T18:34:05.633Z,43.54
2022-12-26T18:36:36.398Z,43.54
2022-12-26T18:39:04.665Z,43.53
2022-12-26T18:41:31.884Z,43.51
2022-12-26T18:43:58.982Z,43.29
2022-12-26T18:46:27.683Z,43.29
2022-12-26T18:48:54.826Z,43.47
2022-12-26T18:51:22.187Z,43.61
2022-12-26T18:53:50.957Z,43.78
2022-12-26T18:56:20.604Z,43.85
2022-12-26T18:58:55.538Z,43.79
2022-12-26T19:01:25.457Z,43.88
2022-12-26T19:03:52.710Z,43.65
2022-12-26T19:06:23.556Z,43.47
2022-12-26T19:08:52.352Z,43.44
2022-12-26T19:11:19.731Z,43.19
2022-12-26T19:13:47.478Z,43.25
2022-12-26T19:16:14.741Z,43.15
2022-12-26T19:18:42.075Z,43.10
2022-12-26T19:21:11.263Z,43.08
2022-12-26T19:23:38.409Z,43.17
2022-12-26T19:26:10.508Z,43.03
2022-12-26T19:28:38.099Z,43.26
2022-12-26T19:31:09.144Z,43.05
2022-12-26T19:33:36.357Z,43.16
2022-12-26T19:36:04.380Z,43.47
2022-12-26T19:38:31.764Z,43.34
2022-12-26T19:41:02.484Z,43.19
2022-12-26T19:43:31.581Z,43.55
2022-12-26T19:45:59.589Z,43.54
2022-12-26T19:48:26.823Z,43.58
2022-12-26T19:50:54.073Z,43.64
2022-12-26T19:53:21.186Z,43.57
2022-12-26T19:55:48.278Z,43.65
2022-12-26T19:58:15.454Z,43.46
2022-12-26T20:00:44.029Z,43.36
2022-12-26T20:03:11.395Z,43.61
2022-12-26T20:05:39.068Z,43.52
2022-12-26T20:08:06.186Z,43.66
2022-12-26T20:10:33.767Z,43.68
2022-12-26T20:13:00.959Z,43.82
2022-12-26T20:15:28.306Z,43.81
2022-12-26T20:17:56.824Z,43.90
2022-12-26T20:20:23.968Z,43.77
2022-12-26T20:22:53.142Z,44.14
2022-12-26T20:25:20.551Z,44.00
2022-12-26T20:27:47.652Z,43.94
2022-12-26T20:30:14.766Z,44.23
2022-12-26T20:32:41.864Z,44.08
2022-12-26T20:35:10.498Z,44.08
2022-12-26T20:37:37.581Z,43.91
2022-12-26T20:40:05.730Z,44.07
2022-12-26T20:42:32.985Z,44.00
2022-12-26T20:45:00.166Z,44.08
2022-12-26T20:47:27.249Z,43.89
2022-12-26T20:49:54.632Z,43.96
2022-12-26T20:52:23.108Z,43.77
2022-12-26T20:54:50.221Z,43.93
2022-12-26T20:57:17.332Z,43.85
2022-12-26T20:59:44.501Z,44.10
2022-12-26T21:02:12.378Z,43.89
2022-12-26T21:04:39.690Z,44.13
2022-12-26T21:07:06.990Z,44.05
2022-12-26T21:09:38.516Z,44.17
2022-12-26T21:12:08.198Z,44.09
2022-12-26T21:14:35.300Z,44.22
2022-12-26T21:17:02.447Z,44.17
2022-12-26T21:19:29.601Z,44.27
2022-12-26T21:21:57.120Z,44.31
2022-12-26T21:24:26.769Z,44.13
2022-12-26T21:26:55.604Z,44.15
2022-12-26T21:29:25.396Z,44.12
2022-12-26T21:31:53.091Z,44.09
2022-12-26T21:34:22.095Z,43.97
2022-12-26T21:36:49.735Z,43.86
2022-12-26T21:39:16.827Z,43.96
2022-12-26T21:41:43.935Z,43.72
2022-12-26T21:44:12.361Z,44.07
2022-12-26T21:46:39.511Z,44.01
2022-12-26T21:49:06.690Z,44.15
2022-12-26T21:51:33.776Z,44.15
2022-12-26T21:54:00.859Z,44.21
2022-12-26T21:56:27.999Z,44.23
2022-12-26T21:58:55.097Z,44.22
2022-12-26T22:01:25.143Z,44.15
2022-12-26T22:03:52.505Z,44.39
2022-12-26T22:06:19.619Z,44.37
2022-12-26T22:08:46.744Z,44.16
2022-12-26T22:11:17.438Z,44.46
2022-12-26T22:13:44.539Z,44.28
2022-12-26T22:16:12.520Z,44.15
2022-12-26T22:18:42.930Z,43.94
2022-12-26T22:21:12.877Z,43.88
2022-12-26T22:23:41.403Z,43.98
2022-12-26T22:26:10.417Z,43.97
2022-12-26T22:28:38.190Z,43.82
2022-12-26T22:31:05.949Z,43.83
2022-12-26T22:33:33.516Z,44.01
2022-12-26T22:36:06.129Z,44.01
2022-12-26T22:38:33.601Z,43.91
2022-12-26T22:41:00.740Z,44.12
2022-12-26T22:43:28.406Z,44.10
2022-12-26T22:45:55.925Z,44.13
2022-12-26T22:48:23.781Z,44.02
2022-12-26T22:50:53.386Z,44.21
2022-12-26T22:53:24.472Z,44.16
2022-12-26T22:55:56.256Z,44.35
2022-12-26T22:58:23.747Z,44.27
2022-12-26T23:00:51.181Z,44.38
2022-12-26T23:03:18.862Z,44.29
2022-12-26T23:05:46.656Z,44.26
2022-12-26T23:08:17.246Z,44.19
2022-12-26T23:10:47.367Z,44.08
2022-12-26T23:13:16.177Z,44.15
2022-12-26T23:15:53.464Z,44.05
2022-12-26T23:18:30.683Z,43.88
2022-12-26T23:21:02.719Z,44.07
2022-12-26T23:23:30.284Z,44.08
2022-12-26T23:26:00.682Z,44.15
2022-12-26T23:28:28.059Z,44.09
2022-12-26T23:30:55.214Z,44.09
2022-12-26T23:33:22.831Z,44.27
2022-12-26T23:35:49.941Z,44.22
2022-12-26T23:38:17.033Z,44.33
2022-12-26T23:40:44.142Z,44.32
2022-12-26T23:43:12.610Z,44.22
2022-12-26T23:45:42.720Z,44.28
2022-12-26T23:48:10.223Z,44.23
2022-12-26T23:50:37.444Z,44.45
2022-12-26T23:53:04.879Z,44.32
2022-12-26T23:55:32.033Z,44.09
2022-12-26T23:57:59.253Z,44.24
